createdAt,value
2023-04-10T00:02:27.211Z,4.48
2023-04-10T00:05:33.761Z,4.41
2023-04-10T00:08:43.140Z,4.36
2023-04-10T00:11:49.143Z,4.41
2023-04-10T00:14:55.990Z,4.26
2023-04-10T00:18:02.380Z,4.28
2023-04-10T00:21:12.179Z,4.29
2023-04-10T00:24:21.437Z,4.39
2023-04-10T00:27:28.368Z,4.36
2023-04-10T00:30:44.669Z,4.43
2023-04-10T00:33:51.800Z,4.45
2023-04-10T00:36:58.077Z,4.56
2023-04-10T00:40:10.036Z,4.66
2023-04-10T00:43:16.247Z,4.75
2023-04-10T00:46:24.231Z,4.65
2023-04-10T00:49:30.485Z,4.63
2023-04-10T00:52:38.007Z,4.80
2023-04-10T00:55:47.565Z,4.86
2023-04-10T00:58:54.449Z,4.74
2023-04-10T01:02:01.181Z,4.63
2023-04-10T01:05:12.369Z,4.71
2023-04-10T01:08:55.484Z,4.79
2023-04-10T01:12:26.382Z,4.82
2023-04-10T01:15:41.645Z,4.88
2023-04-10T01:18:58.554Z,4.89
2023-04-10T01:22:10.899Z,4.78
2023-04-10T01:25:49.445Z,4.81
2023-04-10T01:29:15.022Z,4.91
2023-04-10T01:32:25.962Z,4.77
2023-04-10T01:35:37.790Z,4.90
2023-04-10T01:38:48.798Z,4.84
2023-04-10T01:42:05.088Z,4.81
2023-04-10T01:45:28.886Z,4.78
2023-04-10T01:48:35.085Z,4.62
2023-04-10T01:51:42.745Z,4.70
2023-04-10T01:54:56.457Z,4.73
2023-04-10T01:58:12.604Z,4.75
2023-04-10T02:01:30.170Z,4.70
2023-04-10T02:04:38.002Z,4.70
2023-04-10T02:07:53.687Z,4.69
2023-04-10T02:11:14.949Z,4.54
2023-04-10T02:14:25.471Z,4.65
2023-04-10T02:17:36.527Z,4.68
2023-04-10T02:20:42.808Z,4.75
2023-04-10T02:23:54.146Z,4.81
2023-04-10T02:27:00.219Z,4.81
2023-04-10T02:30:09.197Z,4.74
2023-04-10T02:33:18.075Z,4.62
2023-04-10T02:36:24.890Z,4.50
2023-04-10T02:39:34.355Z,4.45
2023-04-10T02:42:41.235Z,4.49
2023-04-10T02:45:49.573Z,4.55
2023-04-10T02:49:07.915Z,4.62
2023-04-10T02:52:13.892Z,4.55
2023-04-10T02:55:21.076Z,4.49
2023-04-10T02:58:30.777Z,4.61
2023-04-10T03:01:42.465Z,4.67
2023-04-10T03:04:54.869Z,4.69
2023-04-10T03:08:05.080Z,4.58
2023-04-10T03:11:11.966Z,4.57
2023-04-10T03:14:18.861Z,4.52
2023-04-10T03:17:31.546Z,4.40
2023-04-10T03:20:44.961Z,4.41
2023-04-10T03:23:54.683Z,4.46
2023-04-10T03:27:08.484Z,4.47
2023-04-10T03:30:35.605Z,4.46
2023-04-10T03:33:42.837Z,4.52
2023-04-10T03:36:51.855Z,4.50
2023-04-10T03:39:59.466Z,4.54
2023-04-10T03:43:06.356Z,4.64
2023-04-10T03:46:14.570Z,4.65
2023-04-10T03:49:23.611Z,4.56
2023-04-10T03:52:43.633Z,4.50
2023-04-10T03:55:54.926Z,4.41
2023-04-10T03:59:04.166Z,4.39
2023-04-10T04:02:17.059Z,4.25
2023-04-10T04:05:24.731Z,4.37
2023-04-10T04:08:53.531Z,4.32
2023-04-10T04:12:14.598Z,4.20
2023-04-10T04:15:54.418Z,4.35
2023-04-10T04:19:21.357Z,4.45
2023-04-10T04:22:47.543Z,4.38
2023-04-10T04:26:02.600Z,4.45
2023-04-10T04:29:34.092Z,4.48
2023-04-10T04:32:56.007Z,4.52
2023-04-10T04:36:24.558Z,4.63
2023-04-10T04:39:50.152Z,4.71
2023-04-10T04:43:21.464Z,4.78
2023-04-10T04:46:47.877Z,4.88
2023-04-10T04:49:56.550Z,4.78
2023-04-10T04:53:45.889Z,4.79
2023-04-10T04:57:10.958Z,4.75
2023-04-10T05:00:59.183Z,4.86
2023-04-10T05:04:25.520Z,4.90
2023-04-10T05:07:58.237Z,4.77
2023-04-10T05:11:21.244Z,4.86
2023-04-10T05:14:36.199Z,4.86
2023-04-10T05:17:54.089Z,4.98
2023-04-10T05:21:20.828Z,4.91
2023-04-10T05:24:48.867Z,4.76
2023-04-10T05:28:02.445Z,4.72
2023-04-10T05:31:28.679Z,4.62
2023-04-10T05:34:49.509Z,4.69
2023-04-10T05:38:09.665Z,4.71
2023-04-10T05:41:29.594Z,4.80
2023-04-10T05:45:04.908Z,4.89
2023-04-10T05:48:32.041Z,4.79
2023-04-10T05:51:57.969Z,4.95
2023-04-10T05:55:35.354Z,4.82
2023-04-10T05:58:59.906Z,4.86
2023-04-10T06:02:39.587Z,4.84
2023-04-10T06:05:50.317Z,4.93
2023-04-10T06:09:00.122Z,4.95
2023-04-10T06:12:07.601Z,5.01
2023-04-10T06:15:21.215Z,5.17
2023-04-10T06:18:27.809Z,5.04
2023-04-10T06:21:34.921Z,4.97
2023-04-10T06:24:43.589Z,5.11
2023-04-10T06:27:52.014Z,4.95
2023-04-10T06:31:03.600Z,4.99
2023-04-10T06:34:13.970Z,5.08
2023-04-10T06:37:34.584Z,5.27
2023-04-10T06:40:45.904Z,5.33
2023-04-10T06:43:54.981Z,5.07
2023-04-10T06:47:01.799Z,4.93
2023-04-10T06:50:09.110Z,4.86
2023-04-10T06:53:15.963Z,4.93
2023-04-10T06:56:24.589Z,5.09
2023-04-10T06:59:32.103Z,5.11
2023-04-10T07:02:38.046Z,4.99
2023-04-10T07:05:45.098Z,4.92
2023-04-10T07:08:57.816Z,5.05
2023-04-10T07:12:07.708Z,4.86
2023-04-10T07:15:14.757Z,5.01
2023-04-10T07:18:21.660Z,5.19
2023-04-10T07:21:28.238Z,5.31
2023-04-10T07:24:35.324Z,5.34
2023-04-10T07:27:43.950Z,5.31
2023-04-10T07:30:50.801Z,5.22
2023-04-10T07:33:56.789Z,5.30
2023-04-10T07:37:03.611Z,5.19
2023-04-10T07:40:12.388Z,5.17
2023-04-10T07:43:21.870Z,5.10
2023-04-10T07:46:27.955Z,5.20
2023-04-10T07:49:34.664Z,5.35
2023-04-10T07:52:40.684Z,5.54
2023-04-10T07:55:50.088Z,5.34
2023-04-10T07:59:03.940Z,5.32
2023-04-10T08:02:10.870Z,5.48
2023-04-10T08:05:17.003Z,5.75
2023-04-10T08:08:23.956Z,5.84
2023-04-10T08:11:32.570Z,5.89
2023-04-10T08:14:42.003Z,5.78
2023-04-10T08:17:48.192Z,5.97
2023-04-10T08:20:54.935Z,6.20
2023-04-10T08:24:03.356Z,6.28
2023-04-10T08:27:10.077Z,6.37
2023-04-10T08:30:18.842Z,6.39
2023-04-10T08:33:26.571Z,6.63
2023-04-10T08:36:32.596Z,6.79
2023-04-10T08:39:39.835Z,6.61
2023-04-10T08:42:46.338Z,6.65
2023-04-10T08:45:56.690Z,6.53
2023-04-10T08:49:06.669Z,6.44
2023-04-10T08:52:23.209Z,6.54
2023-04-10T08:55:30.765Z,6.66
2023-04-10T08:58:38.206Z,6.74
2023-04-10T09:01:47.812Z,7.07
2023-04-10T09:04:56.986Z,7.16
2023-04-10T09:08:03.167Z,7.00
2023-04-10T09:11:11.603Z,7.18
2023-04-10T09:14:25.396Z,7.21
2023-04-10T09:17:34.850Z,7.23
2023-04-10T09:20:44.354Z,7.64
2023-04-10T09:24:02.923Z,7.86
2023-04-10T09:27:09.527Z,8.08
2023-04-10T09:30:38.058Z,8.21
2023-04-10T09:33:46.706Z,8.09
2023-04-10T09:36:59.155Z,7.65
2023-04-10T09:40:06.754Z,7.32
2023-04-10T09:43:28.813Z,7.30
2023-04-10T09:46:35.446Z,7.44
2023-04-10T09:49:52.863Z,7.32
2023-04-10T09:53:01.849Z,7.27
2023-04-10T09:56:10.735Z,7.43
2023-04-10T09:59:22.078Z,7.50
2023-04-10T10:02:32.770Z,7.37
2023-04-10T10:05:45.775Z,7.77
2023-04-10T10:08:54.093Z,7.23
2023-04-10T10:12:02.777Z,7.23
2023-04-10T10:15:19.830Z,7.29
2023-04-10T10:18:39.723Z,7.52
2023-04-10T10:21:51.721Z,7.69
2023-04-10T10:25:00.212Z,7.81
2023-04-10T10:28:10.967Z,7.73
2023-04-10T10:31:19.242Z,8.17
2023-04-10T10:34:26.355Z,8.48
2023-04-10T10:37:36.151Z,8.43
2023-04-10T10:40:57.932Z,8.56
2023-04-10T10:44:17.236Z,9.12
2023-04-10T10:47:31.200Z,9.15
2023-04-10T10:50:57.670Z,9.11
2023-04-10T10:54:07.485Z,9.09
2023-04-10T10:57:55.187Z,9.06
2023-04-10T11:01:12.494Z,9.14
2023-04-10T11:04:46.438Z,8.97
2023-04-10T11:08:12.088Z,9.07
2023-04-10T11:11:23.899Z,9.11
2023-04-10T11:14:36.690Z,8.97
2023-04-10T11:17:56.442Z,8.86
2023-04-10T11:21:15.024Z,9.00
2023-04-10T11:24:21.189Z,8.95
2023-04-10T11:27:55.540Z,9.06
2023-04-10T11:31:22.809Z,9.52
2023-04-10T11:34:47.882Z,9.41
2023-04-10T11:38:19.674Z,9.71
2023-04-10T11:41:32.325Z,10.01
2023-04-10T11:44:41.131Z,10.43
2023-04-10T11:47:57.937Z,10.80
2023-04-10T11:51:12.038Z,11.25
2023-04-10T11:54:22.270Z,11.55
2023-04-10T11:57:37.315Z,11.34
2023-04-10T12:00:44.076Z,11.70
2023-04-10T12:03:53.058Z,11.36
2023-04-10T12:07:02.188Z,11.45
2023-04-10T12:10:10.522Z,11.70
2023-04-10T12:13:28.526Z,11.94
2023-04-10T12:16:36.683Z,12.47
2023-04-10T12:19:46.299Z,13.15
2023-04-10T12:22:52.491Z,13.72
2023-04-10T12:26:21.536Z,13.62
2023-04-10T12:29:37.306Z,14.48
2023-04-10T12:32:44.240Z,14.67
2023-04-10T12:35:54.609Z,14.73
2023-04-10T12:39:03.726Z,14.78
2023-04-10T12:42:16.918Z,14.35
2023-04-10T12:45:24.034Z,14.87
2023-04-10T12:48:30.002Z,15.18
2023-04-10T12:51:51.388Z,15.36
2023-04-10T12:55:14.386Z,15.93
2023-04-10T12:58:28.508Z,16.40
2023-04-10T13:01:41.503Z,16.13
2023-04-10T13:04:54.238Z,16.07
2023-04-10T13:08:02.936Z,16.17
2023-04-10T13:11:11.630Z,15.89
2023-04-10T13:14:30.255Z,14.92
2023-04-10T13:17:37.309Z,14.82
2023-04-10T13:20:45.962Z,14.43
2023-04-10T13:23:55.492Z,14.75
2023-04-10T13:27:05.113Z,14.61
2023-04-10T13:30:13.115Z,14.68
2023-04-10T13:33:19.060Z,14.28
2023-04-10T13:36:29.403Z,14.59
2023-04-10T13:39:38.444Z,14.43
2023-04-10T13:42:45.089Z,14.50
2023-04-10T13:45:51.427Z,13.88
2023-04-10T13:48:59.812Z,13.79
2023-04-10T13:52:06.172Z,13.62
2023-04-10T13:55:15.992Z,13.71
2023-04-10T13:58:22.217Z,13.57
2023-04-10T14:01:30.750Z,13.89
2023-04-10T14:04:36.784Z,14.04
2023-04-10T14:07:43.568Z,13.90
2023-04-10T14:10:53.010Z,13.80
2023-04-10T14:13:59.838Z,13.79
2023-04-10T14:17:18.493Z,13.15
2023-04-10T14:20:25.666Z,13.09
2023-04-10T14:23:41.266Z,12.83
2023-04-10T14:26:52.459Z,12.57
2023-04-10T14:29:58.616Z,12.46
2023-04-10T14:33:05.527Z,12.26
2023-04-10T14:36:19.213Z,12.43
2023-04-10T14:39:27.556Z,12.29
2023-04-10T14:42:39.391Z,12.20
2023-04-10T14:45:46.379Z,12.29
2023-04-10T14:48:52.448Z,12.25
2023-04-10T14:52:05.746Z,12.30
2023-04-10T14:55:16.575Z,12.40
2023-04-10T14:58:25.987Z,12.34
2023-04-10T15:01:32.037Z,12.19
2023-04-10T15:04:39.518Z,12.26
2023-04-10T15:07:45.624Z,12.18
2023-04-10T15:11:00.758Z,11.98
2023-04-10T15:14:13.687Z,12.10
2023-04-10T15:17:21.006Z,12.36
2023-04-10T15:20:32.633Z,12.26
2023-04-10T15:23:42.736Z,12.34
2023-04-10T15:26:50.152Z,12.14
2023-04-10T15:29:59.750Z,12.10
2023-04-10T15:33:09.630Z,11.97
2023-04-10T15:36:17.677Z,11.88
2023-04-10T15:39:23.633Z,12.02
2023-04-10T15:42:37.821Z,12.19
2023-04-10T15:45:49.600Z,12.08
2023-04-10T15:48:56.389Z,12.03
2023-04-10T15:52:05.341Z,11.91
2023-04-10T15:55:12.616Z,12.00
2023-04-10T15:58:19.306Z,12.05
2023-04-10T16:01:28.940Z,12.10
2023-04-10T16:04:35.717Z,12.12
2023-04-10T16:07:44.041Z,12.07
2023-04-10T16:10:50.308Z,12.14
2023-04-10T16:13:57.126Z,12.25
2023-04-10T16:17:05.776Z,12.13
2023-04-10T16:20:13.542Z,12.03
2023-04-10T16:23:20.458Z,11.96
2023-04-10T16:26:27.482Z,12.08
2023-04-10T16:29:33.518Z,11.94
2023-04-10T16:32:43.110Z,11.86
2023-04-10T16:35:49.144Z,11.59
2023-04-10T16:38:56.284Z,11.80
2023-04-10T16:42:03.812Z,11.50
2023-04-10T16:45:13.217Z,10.22
2023-04-10T16:48:22.025Z,9.00
2023-04-10T16:51:29.300Z,8.54
2023-04-10T16:54:35.269Z,8.18
2023-04-10T16:57:42.293Z,7.51
2023-04-10T17:00:48.350Z,7.40
2023-04-10T17:04:00.827Z,7.34
2023-04-10T17:07:06.859Z,7.29
2023-04-10T17:10:14.246Z,7.13
2023-04-10T17:13:20.389Z,6.99
2023-04-10T17:16:27.413Z,7.08
2023-04-10T17:19:36.126Z,7.02
2023-04-10T17:22:43.281Z,6.97
2023-04-10T17:25:49.427Z,7.06
2023-04-10T17:28:56.835Z,7.10
2023-04-10T17:32:03.046Z,7.18
2023-04-10T17:35:13.049Z,7.14
2023-04-10T17:38:19.002Z,7.17
2023-04-10T17:41:26.097Z,7.18
2023-04-10T17:44:32.356Z,7.17
2023-04-10T17:47:40.456Z,7.11
2023-04-10T17:50:49.584Z,7.10
2023-04-10T17:53:56.560Z,7.05
2023-04-10T17:57:03.016Z,7.03
2023-04-10T18:00:16.146Z,6.99
2023-04-10T18:03:22.524Z,6.96
2023-04-10T18:06:36.092Z,6.79
2023-04-10T18:09:42.894Z,6.79
2023-04-10T18:12:49.827Z,6.82
2023-04-10T18:15:55.817Z,6.78
2023-04-10T18:19:02.747Z,6.78
2023-04-10T18:22:13.013Z,6.80
2023-04-10T18:25:20.981Z,6.71
2023-04-10T18:28:28.935Z,6.63
2023-04-10T18:31:35.988Z,6.63
2023-04-10T18:34:42.544Z,6.69
2023-04-10T18:37:52.094Z,6.77
2023-04-10T18:41:00.156Z,6.78
2023-04-10T18:44:10.977Z,6.75
2023-04-10T18:47:17.798Z,6.79
2023-04-10T18:50:30.863Z,6.73
2023-04-10T18:53:52.069Z,6.45
2023-04-10T18:56:59.672Z,6.39
2023-04-10T19:00:07.184Z,6.38
2023-04-10T19:03:33.841Z,6.31
2023-04-10T19:06:41.352Z,6.19
2023-04-10T19:09:51.549Z,6.17
2023-04-10T19:12:57.674Z,6.27
2023-04-10T19:16:09.304Z,6.33
2023-04-10T19:19:19.596Z,6.32
2023-04-10T19:22:27.051Z,6.29
2023-04-10T19:25:36.098Z,6.24
2023-04-10T19:28:43.033Z,5.97
2023-04-10T19:31:49.215Z,5.65
2023-04-10T19:34:58.268Z,5.63
2023-04-10T19:38:10.856Z,5.64
2023-04-10T19:41:31.429Z,5.70
2023-04-10T19:44:39.592Z,5.67
2023-04-10T19:47:47.501Z,5.54
2023-04-10T19:50:55.833Z,5.08
2023-04-10T19:54:09.844Z,5.28
2023-04-10T19:57:22.948Z,5.39
2023-04-10T20:00:32.873Z,5.43
2023-04-10T20:03:39.098Z,5.47
2023-04-10T20:06:46.292Z,5.56
2023-04-10T20:09:52.466Z,5.58
2023-04-10T20:13:02.105Z,5.59
2023-04-10T20:16:08.943Z,5.65
2023-04-10T20:19:15.876Z,5.47
2023-04-10T20:22:22.042Z,5.36
2023-04-10T20:25:28.850Z,5.33
2023-04-10T20:28:40.710Z,5.51
2023-04-10T20:31:47.889Z,5.74
2023-04-10T20:34:54.171Z,5.82
2023-04-10T20:38:01.217Z,5.83
2023-04-10T20:41:07.522Z,5.89
2023-04-10T20:44:16.857Z,6.02
2023-04-10T20:47:23.131Z,6.09
2023-04-10T20:50:30.239Z,5.98
2023-04-10T20:53:37.110Z,5.57
2023-04-10T20:56:44.280Z,5.47
2023-04-10T20:59:52.820Z,5.27
2023-04-10T21:02:59.918Z,5.07
2023-04-10T21:06:06.714Z,5.02
2023-04-10T21:09:13.421Z,5.01
2023-04-10T21:12:20.335Z,4.90
2023-04-10T21:15:29.730Z,4.77
2023-04-10T21:18:35.786Z,4.70
2023-04-10T21:21:42.557Z,4.65
2023-04-10T21:24:48.524Z,4.67
2023-04-10T21:27:56.962Z,4.61
2023-04-10T21:31:05.871Z,4.62
2023-04-10T21:34:12.703Z,4.71
2023-04-10T21:37:18.619Z,4.70
2023-04-10T21:40:34.400Z,4.64
2023-04-10T21:43:40.573Z,4.72
2023-04-10T21:46:49.979Z,4.72
2023-04-10T21:49:56.080Z,4.79
2023-04-10T21:53:03.044Z,4.81
2023-04-10T21:56:10.217Z,4.90
2023-04-10T21:59:17.031Z,4.95
2023-04-10T22:02:25.668Z,4.93
2023-04-10T22:05:32.577Z,4.84
2023-04-10T22:08:41.626Z,4.93
2023-04-10T22:11:48.401Z,4.97
2023-04-10T22:14:54.832Z,4.99
2023-04-10T22:18:04.266Z,4.95
2023-04-10T22:21:11.185Z,4.94
2023-04-10T22:24:17.876Z,4.97
2023-04-10T22:27:23.829Z,4.97
2023-04-10T22:30:30.870Z,4.93
2023-04-10T22:33:39.362Z,4.98
2023-04-10T22:36:46.173Z,5.03
2023-04-10T22:39:52.078Z,5.08
2023-04-10T22:42:58.936Z,5.12
2023-04-10T22:46:04.972Z,5.18
2023-04-10T22:49:17.306Z,5.21
2023-04-10T22:52:23.145Z,5.21
2023-04-10T22:55:30.042Z,5.20
2023-04-10T22:58:36.200Z,5.18
2023-04-10T23:01:43.192Z,5.18
2023-04-10T23:04:54.526Z,5.18
2023-04-10T23:08:01.797Z,5.20
2023-04-10T23:11:10.412Z,5.24
2023-04-10T23:14:20.560Z,5.25
2023-04-10T23:17:26.452Z,5.22
2023-04-10T23:20:35.915Z,5.21
2023-04-10T23:23:41.814Z,5.21
2023-04-10T23:26:48.677Z,5.19
2023-04-10T23:29:54.680Z,5.13
2023-04-10T23:33:01.751Z,5.08
2023-04-10T23:36:14.753Z,5.02
2023-04-10T23:39:27.932Z,4.78
2023-04-10T23:42:37.155Z,4.74
2023-04-10T23:45:51.834Z,4.70
2023-04-10T23:48:57.825Z,4.63
2023-04-10T23:52:07.535Z,4.59
2023-04-10T23:55:13.624Z,4.57
2023-04-10T23:58:23.056Z,4.44
